Latest Weather Observations for Heron Island

IDQ60801

Issued at 10:13 pm EST Wednesday 25 May 2022 (issued every 10 minutes, with the page automatically refreshed every 10 minutes)

About weather observations | Map of weather stations | Latest weather observations for QLD | Other Formats
Station Details ID: 039122 Name: HERON ISLAND RES STN Lat: -23.44 Lon: 151.91 Height: 3.3 m
Data from the previous 72 hours. | See also: Recent months at Heron Island
Date/Time
EST
Temp
°C
App
Temp
°C
Dew
Point
°C
Rel
Hum
%
Delta-T
°C
Wind Press
QNH
hPa
Press
MSL
hPa
Rain since
9am
mm
Dir  Spd
km/h
Gust
km/h
Spd
kts
Gust
kts
25/10:00pm - - - - - SE 35 48 19 26 - - -
25/09:50pm - - - - - SE 28 46 15 25 - - -
25/09:30pm - - - - - ESE 30 43 16 23 - - -
25/09:01pm - - - - - SSE 30 48 16 26 - - -
25/09:00pm - - - - - SSE 28 39 15 21 - - -
25/08:30pm - - - - - SE 30 37 16 20 - - -
25/08:00pm - - - - - SE 33 46 18 25 - - -
25/07:30pm - - - - - SSE 24 35 13 19 - - -
25/07:01pm - - - - - SE 28 50 15 27 - - -
25/07:00pm - - - - - SE 26 50 14 27 - - -
25/06:30pm - - - - - SSE 28 41 15 22 - - -
25/06:12pm - - - - - SSE 28 48 15 26 - - -
25/06:00pm - - - - - SSE 24 35 13 19 - - -
25/05:30pm - - - - - SE 26 37 14 20 - - -
25/05:00pm - - - - - ESE 24 35 13 19 - - -
25/04:30pm - - - - - SSE 26 37 14 20 - - -
25/04:00pm - - - - - SSE 30 41 16 22 - - -
25/03:30pm - - - - - SSE 26 39 14 21 - - -
25/03:00pm - - - - - SSE 28 41 15 22 - - -
25/02:42pm - - - - - SSE 28 46 15 25 - - -
25/02:30pm - - - - - SSE 30 46 16 25 - - -
25/02:00pm - - - - - S 30 41 16 22 - - -
25/01:30pm - - - - - SSE 28 39 15 21 - - -
25/01:00pm - - - - - SSE 30 39 16 21 - - -
25/12:30pm - - - - - SSE 28 41 15 22 - - -
25/12:00pm - - - - - SSE 20 30 11 16 - - -
25/11:30am - - - - - SSE 32 44 17 24 - - -
25/11:00am - - - - - SSE 28 37 15 20 - - -
25/10:30am - - - - - SSE 28 44 15 24 - - -
25/10:20am - - - - - SSE 28 46 15 25 - - -
25/10:00am - - - - - SSE 28 41 15 22 - - -
25/09:30am - - - - - SSE 28 37 15 20 - - -
25/09:00am - - - - - SSE 26 39 14 21 - - -
25/08:30am - - - - - SSE 28 41 15 22 - - -
25/08:00am - - - - - SSE 30 43 16 23 - - -
25/07:30am - - - - - SE 28 35 15 19 - - -
25/07:00am - - - - - SE 30 50 16 27 - - -
25/06:39am - - - - - SSE 33 52 18 28 - - -
25/06:30am - - - - - SSE 35 52 19 28 - - -
25/06:00am - - - - - SSE 35 50 19 27 - - -
25/05:30am - - - - - SSE 33 50 18 27 - - -
25/05:00am - - - - - SSE 33 48 18 26 - - -
25/04:30am - - - - - SSE 32 50 17 27 - - -
25/04:21am - - - - - SSE 32 50 17 27 - - -
25/04:00am - - - - - SSE 39 50 21 27 - - -
25/03:46am - - - - - SSE 33 54 18 29 - - -
25/03:30am - - - - - SSE 30 43 16 23 - - -
25/03:00am - - - - - SE 32 44 17 24 - - -
25/02:30am - - - - - SE 35 48 19 26 - - -
25/02:00am - - - - - SE 35 46 19 25 - - -
25/01:30am - - - - - SE 35 50 19 27 - - -
25/01:00am - - - - - SE 35 48 19 26 - - -
25/12:30am - - - - - SE 33 50 18 27 - - -
25/12:28am - - - - - SE 32 50 17 27 - - -
25/12:00am - - - - - SE 35 50 19 27 - - -
 
Date/Time
EST
Temp
°C
App
Temp
°C
Dew
Point
°C
Rel
Hum
%
Delta-T
°C
Wind Press
QNH
hPa
Press
MSL
hPa
Rain since
9am
mm
Dir  Spd
km/h
Gust
km/h
Spd
kts
Gust
kts
24/11:30pm - - - - - SE 32 48 17 26 - - -
24/11:27pm - - - - - ESE 28 48 15 26 - - -
24/11:00pm - - - - - SE 35 44 19 24 - - -
24/10:30pm - - - - - SE 32 44 17 24 - - -
24/10:00pm - - - - - SE 33 41 18 22 - - -
24/09:34pm - - - - - SE 35 54 19 29 - - -
24/09:30pm - - - - - SE 35 48 19 26 - - -
24/09:00pm - - - - - SE 37 48 20 26 - - -
24/08:30pm - - - - - SE 33 48 18 26 - - -
24/08:00pm - - - - - SE 35 46 19 25 - - -
24/07:48pm - - - - - SE 37 56 20 30 - - -
24/07:30pm - - - - - SE 37 48 20 26 - - -
24/07:00pm - - - - - SE 35 46 19 25 - - -
24/06:30pm - - - - - SE 39 52 21 28 - - -
24/06:00pm - - - - - SE 35 50 19 27 - - -
24/05:30pm - - - - - SSE 35 44 19 24 - - -
24/05:00pm - - - - - SE 37 50 20 27 - - -
24/04:30pm - - - - - SE 35 46 19 25 - - -
24/04:00pm - - - - - SE 35 52 19 28 - - -
24/03:30pm - - - - - SE 37 48 20 26 - - -
24/03:00pm - - - - - SE 39 54 21 29 - - -
24/02:30pm - - - - - SE 37 50 20 27 - - -
24/02:00pm - - - - - SE 39 50 21 27 - - -
24/01:30pm - - - - - SE 37 50 20 27 - - -
24/01:00pm - - - - - SE 28 48 15 26 - - -
24/12:30pm - - - - - SSE 19 28 10 15 - - -
24/12:00pm - - - - - SSE 22 33 12 18 - - -
24/11:30am - - - - - SSE 22 30 12 16 - - -
24/11:00am - - - - - SE 26 35 14 19 - - -
24/10:30am - - - - - SE 28 35 15 19 - - -
24/10:00am - - - - - SE 24 35 13 19 - - -
24/09:30am - - - - - ESE 24 35 13 19 - - -
24/09:00am - - - - - ESE 26 35 14 19 - - -
24/08:30am - - - - - ESE 26 37 14 20 - - -
24/08:00am - - - - - ESE 26 44 14 24 - - -
24/07:30am - - - - - SE 33 44 18 24 - - -
24/07:00am - - - - - SE 32 48 17 26 - - -
24/06:30am - - - - - ESE 30 50 16 27 - - -
24/06:29am - - - - - ESE 28 50 15 27 - - -
24/06:28am - - - - - ESE 28 44 15 24 - - -
24/06:00am - - - - - SE 15 26 8 14 - - -
24/05:30am - - - - - S 20 28 11 15 - - -
24/05:00am - - - - - SSE 13 17 7 9 - - -
24/04:30am - - - - - SE 11 15 6 8 - - -
24/04:00am - - - - - ESE 15 22 8 12 - - -
24/03:30am - - - - - E 15 19 8 10 - - -
24/03:00am - - - - - ENE 15 24 8 13 - - -
24/02:30am - - - - - ESE 17 26 9 14 - - -
24/02:00am - - - - - ESE 22 33 12 18 - - -
24/01:30am - - - - - ESE 20 30 11 16 - - -
24/01:00am - - - - - SE 15 22 8 12 - - -
24/12:30am - - - - - ESE 17 30 9 16 - - -
24/12:00am - - - - - SE 26 37 14 20 - - -
 
Date/Time
EST
Temp
°C
App
Temp
°C
Dew
Point
°C
Rel
Hum
%
Delta-T
°C
Wind Press
QNH
hPa
Press
MSL
hPa
Rain since
9am
mm
Dir  Spd
km/h
Gust
km/h
Spd
kts
Gust
kts
23/11:30pm - - - - - SSE 32 50 17 27 - - -
23/11:05pm - - - - - SSE 32 50 17 27 - - -
23/11:00pm - - - - - SE 32 46 17 25 - - -
23/10:41pm - - - - - SSE 28 46 15 25 - - -
23/10:30pm - - - - - SSE 26 39 14 21 - - -
23/10:00pm - - - - - SE 24 33 13 18 - - -
23/09:30pm - - - - - SE 19 28 10 15 - - -
23/09:00pm - - - - - SSE 28 43 15 23 - - -
23/08:30pm - - - - - SE 30 41 16 22 - - -
23/08:00pm - - - - - SE 26 37 14 20 - - -
23/07:30pm - - - - - SSE 24 37 13 20 - - -
23/07:11pm - - - - - SSE 28 48 15 26 - - -
23/07:00pm - - - - - SE 30 39 16 21 - - -
23/06:30pm - - - - - SE 32 46 17 25 - - -
23/06:00pm - - - - - SE 33 43 18 23 - - -
23/05:30pm - - - - - SE 30 41 16 22 - - -
23/05:00pm - - - - - SE 33 52 18 28 - - -
23/04:53pm - - - - - SE 37 56 20 30 - - -
23/04:50pm - - - - - SE 41 56 22 30 - - -
23/04:40pm - - - - - SE 35 48 19 26 - - -
23/04:30pm - - - - - SE 39 54 21 29 - - -
23/04:02pm - - - - - ESE 33 52 18 28 - - -
23/04:00pm - - - - - ESE 35 52 19 28 - - -
23/03:30pm - - - - - SE 35 48 19 26 - - -
23/03:23pm - - - - - SE 30 48 16 26 - - -
23/03:00pm - - - - - ESE 32 43 17 23 - - -
23/02:30pm - - - - - ESE 30 54 16 29 - - -
23/02:07pm - - - - - ESE 28 50 15 27 - - -
23/02:00pm - - - - - E 24 35 13 19 - - -
23/01:49pm - - - - - ESE 28 48 15 26 - - -
23/01:30pm - - - - - ESE 24 33 13 18 - - -
23/01:00pm - - - - - ESE 20 32 11 17 - - -
23/12:30pm - - - - - ESE 28 41 15 22 - - -
23/12:00pm - - - - - SE 33 54 18 29 - - -
23/11:50am - - - - - SE 37 57 20 31 - - -
23/11:30am - - - - - SE 41 56 22 30 - - -
23/11:00am - - - - - SE 39 56 21 30 - - -
23/10:35am - - - - - SE 35 56 19 30 - - -
23/10:30am - - - - - SE 32 48 17 26 - - -
23/10:06am - - - - - ESE 32 52 17 28 - - -
23/10:00am - - - - - ESE 30 46 16 25 - - -
23/09:30am - - - - - SE 41 59 22 32 - - -
23/09:00am - - - - - SSE 37 56 20 30 - - -
23/08:30am - - - - - SSE 43 70 23 38 - - -
23/08:00am - - - - - SSE 43 61 23 33 - - -
23/07:30am - - - - - SSE 41 59 22 32 - - -
23/07:00am - - - - - SSE 43 63 23 34 - - -
23/06:30am - - - - - SSE 35 54 19 29 - - -
23/06:00am - - - - - SSE 33 52 18 28 - - -
23/05:35am - - - - - SSE 35 54 19 29 - - -
23/05:30am - - - - - SSE 33 48 18 26 - - -
23/05:12am - - - - - SSE 33 52 18 28 - - -
23/05:00am - - - - - SSE 32 46 17 25 - - -
23/04:30am - - - - - SE 35 50 19 27 - - -
23/04:00am - - - - - SSE 32 46 17 25 - - -
23/03:30am - - - - - SE 35 46 19 25 - - -
23/03:19am - - - - - SE 33 52 18 28 - - -
23/03:00am - - - - - SE 43 57 23 31 - - -
23/02:51am - - - - - SE 39 57 21 31 - - -
23/02:30am - - - - - SE 37 52 20 28 - - -
23/02:22am - - - - - SE 32 52 17 28 - - -
23/02:00am - - - - - SE 35 46 19 25 - - -
23/01:30am - - - - - SE 35 46 19 25 - - -
23/01:01am - - - - - SSE 28 46 15 25 - - -
23/01:00am - - - - - SSE 30 46 16 25 - - -
23/12:30am - - - - - SE 35 44 19 24 - - -
23/12:00am - - - - - SSE 32 46 17 25 - - -
 
Date/Time
EST
Temp
°C
App
Temp
°C
Dew
Point
°C
Rel
Hum
%
Delta-T
°C
Wind Press
QNH
hPa
Press
MSL
hPa
Rain since
9am
mm
Dir  Spd
km/h
Gust
km/h
Spd
kts
Gust
kts
22/11:30pm - - - - - SSE 32 50 17 27 - - -
22/11:02pm - - - - - SSE 32 52 17 28 - - -
22/11:00pm - - - - - SSE 32 46 17 25 - - -
22/10:37pm - - - - - S 33 54 18 29 - - -
22/10:30pm - - - - - S 33 43 18 23 - - -

Other formats

Comma delimited format used in spreadsheet applications
http://www.bom.gov.au/fwo/IDQ60801/IDQ60801.94386.axf

JavaScript Object Notation format (JSON) in row-major order
http://www.bom.gov.au/fwo/IDQ60801/IDQ60801.94386.json

Data quality

Most of these data are generated automatically and are frequently updated. Quality checks on data are not normally performed. It is possible for incorrect values to appear. Refer to information at About Latest Weather Observations and please check the disclaimer before using these data.